• Join FlightAware (Why Join?)
  • Login
  • US Flag 
Trick or treat! (Boo!!) 
04:01AM EDT


 

Airport Tracker/Info


-or-


 

Live Flight TrackerFlight Track Log ✈ SWA2339 ✈ 21-Apr-2013 ✈ KSDF - KMDW

Flight Track Log - Related Links

Times and Time Zones

All times are in EDT time to prevent confusion due to time zone crossing. See the SWA2339 flight status page for this flight to view local times or setup timezone preferences in your user account.

Time Position Orientation Groundspeed Altitude Reporting Facility
EDT Latitude Longitude Course Direction KTS MPH feet Rate Location/Type
10:31AM 38.1297 -85.7333 170° South 173 199 2,300  Level FAA TRACON SMA TRACON (SMA)
10:31AM 38.1081 -85.7342 182° South 200 230 3,300 2,760 Climbing FAA TRACON SMA TRACON (SMA)
10:31AM 38.0919 -85.7444 207° Southwest 213 245 4,100 1,800 Climbing FAA TRACON SMA TRACON (SMA)
10:32AM 38.0797 -85.7653 233° Southwest 234 269 4,500 1,800 Climbing FAA TRACON SMA TRACON (SMA)
10:32AM 38.0761 -85.7939 261° West 262 302 5,300 3,900 Climbing FAA TRACON SMA TRACON (SMA)
10:32AM 38.0756 -85.8306 269° West 273 314 7,100 4,440 Climbing FAA TRACON SMA TRACON (SMA)
10:33AM 38.0761 -85.8689 271° West 281 323 8,500 3,480 Climbing FAA TRACON SMA TRACON (SMA)
10:33AM 38.0883 -85.8947 301° West 288 331 9,600 3,360 Climbing FAA TRACON SMA TRACON (SMA)
10:33AM 38.1097 -85.9097 331° Northwest 293 337 10,600 2,220 Climbing FAA TRACON SMA TRACON (SMA)
10:34AM 38.1364 -85.9133 354° North 305 351 11,000 1,860 Climbing FAA TRACON SMA TRACON (SMA)
10:34AM 38.1650 -85.9156 357° North 327 376 11,900 3,300 Climbing FAA TRACON SMA TRACON (SMA)
10:34AM 38.2025 -85.9189 356° North 349 402 13,200 3,660 Climbing FAA TRACON SMA TRACON (SMA)
10:35AM 38.2333 -85.9206 358° North 359 413 14,300 3,300 Climbing FAA TRACON SMA TRACON (SMA)
10:35AM 38.2644 -85.9225 357° North 363 418 15,400 3,600 Climbing FAA TRACON SMA TRACON (SMA)
10:35AM 38.3039 -85.9250 357° North 369 425 16,700 3,360 Climbing FAA TRACON SMA TRACON (SMA)
10:36AM 38.3356 -85.9258 359° North 370 426 17,700 2,100 Climbing FAA TRACON SMA TRACON (SMA)
10:36AM 38.3678 -85.9278 357° North 376 433 18,100 1,800 Climbing FAA TRACON SMA TRACON (SMA)
10:36AM 38.4006 -85.9292 358° North 379 436 18,900 2,700 Climbing FAA TRACON SMA TRACON (SMA)
10:37AM 38.4419 -85.9311 358° North 387 445 19,900 2,820 Climbing FAA TRACON SMA TRACON (SMA)
10:37AM 38.4761 -85.9328 358° North 394 453 20,800 3,000 Climbing FAA TRACON SMA TRACON (SMA)
10:37AM 38.5189 -85.9356 357° North 400 460 21,900 3,000 Climbing FAA TRACON SMA TRACON (SMA)
10:38AM 38.5539 -85.9364 359° North 403 464 22,800 2,520 Climbing FAA TRACON SMA TRACON (SMA)
10:38AM 38.5883 -85.9386 357° North 404 465 23,600 1,800 Climbing FAA TRACON SMA TRACON (SMA)
10:38AM 38.6314 -85.9414 357° North 406 467 24,000 600 Climbing FAA TRACON SMA TRACON (SMA)
10:39AM 38.6664 -85.9433 358° North 405 466 24,000  Level FAA TRACON SMA TRACON (SMA)
10:39AM 38.7011 -85.9444 359° North 404 465 24,000  Level FAA TRACON SMA TRACON (SMA)
10:39AM 38.7356 -85.9461 358° North 405 466 24,000  Level FAA TRACON SMA TRACON (SMA)
10:40AM 38.7789 -85.9483 358° North 404 465 24,000  Level FAA TRACON SMA TRACON (SMA)
10:40AM 38.8125 -85.9517 356° North 399 459 24,000  Level FAA TRACON SMA TRACON (SMA)
10:40AM 38.8475 -85.9517 360° North 403 464 24,000  Level FAA TRACON SMA TRACON (SMA)
10:41AM 38.8903 -85.9544 357° North 402 463 24,000  Level FAA TRACON SMA TRACON (SMA)
10:41AM 38.9247 -85.9567 357° North 402 463 24,000  Level FAA TRACON SMA TRACON (SMA)
10:41AM 38.9683 -85.9589 358° North 406 467 24,000  Level FAA TRACON SMA TRACON (SMA)
10:42AM 39.0028 -85.9625 355° North 405 466 24,000  Level FAA TRACON SMA TRACON (SMA)
10:42AM 39.0381 -85.9622 360° North 408 470 24,000  Level FAA TRACON SMA TRACON (SMA)
10:42AM 39.0628 -85.9656 354° North 408 470 24,000 1,260 Level Indianapolis Center
10:43AM 39.1775 -85.9717 358° North 411 473 25,600 960 Climbing Indianapolis Center
10:44AM 39.2922 -85.9797 357° North 411 473 26,000 180 Climbing Indianapolis Center
10:45AM 39.4047 -85.9861 357° North 406 467 26,000  Level Indianapolis Center
10:46AM 39.5175 -85.9933 357° North 404 465 26,000  Level Indianapolis Center
10:47AM 39.6278 -85.9994 358° North 397 457 26,000  Level Indianapolis Center
10:49AM 39.7389 -86.0072 357° North 397 457 26,000 -420 Level Indianapolis Center
10:50AM 39.8697 -86.0156 357° North 393 452 25,200 -1,020 Descending Indianapolis Center
10:51AM 39.9747 -86.0222 357° North 383 441 24,000 -600 Descending Indianapolis Center
10:52AM 40.0803 -86.0292 357° North 377 434 24,000 -180 Level Indianapolis Center
10:52AM 40.1400 -86.0314 358° North 383 441 23,800 -780 Descending Chicago Center
10:53AM 40.2439 -86.0394 357° North 374 430 22,800 -1,020 Descending Chicago Center
10:54AM 40.3453 -86.0458 357° North 366 421 21,800 -1,020 Descending Chicago Center
10:55AM 40.4456 -86.0522 357° North 361 415 20,800 -900 Descending Chicago Center
10:56AM 40.5450 -86.0572 358° North 358 412 20,000 -420 Descending Chicago Center
10:57AM 40.6661 -86.0547 North 364 419 20,000 -120 Level Chicago Center
10:58AM 40.7664 -86.0528 North 361 415 19,800 -840 Descending Chicago Center
10:59AM 40.8608 -86.0503 North 342 394 18,400 -1,440 Descending Chicago Center
11:00AM 40.9494 -86.0603 355° North 327 376 16,900 -1,620 Descending Chicago Center
11:01AM 40.9867 -86.1639 295° West 317 365 15,100 -1,740 Descending Chicago Center
11:02AM 41.0122 -86.2722 287° West 308 354 13,400 -1,680 Descending Chicago Center
11:03AM 41.0358 -86.3772 287° West 300 345 11,700 -1,200 Descending Chicago Center
11:05AM 41.0650 -86.4750 292° West 287 330 11,000 -840 Descending Chicago Center
11:06AM 41.1100 -86.5833 299° West 281 323 10,000 -540 Descending Chicago Center
11:07AM 41.1753 -86.6275 333° Northwest 267 307 10,000  Level Chicago Center
11:08AM 41.2406 -86.6650 337° Northwest 258 297 10,000  Level Chicago Center
11:09AM 41.2978 -86.7308 319° Northwest 263 303 10,000  Level Chicago Center
11:10AM 41.3397 -86.8094 305° West 261 300 10,000  Level Chicago Center
11:11AM 41.3803 -86.8906 304° West 265 305 10,000 -360 Level Chicago Center
11:12AM 41.4214 -86.9708 304° West 264 304 9,300 -1,080 Descending Chicago Center
11:13AM 41.4614 -87.0500 304° West 261 300 7,800 -1,560 Descending Chicago Center
11:14AM 41.5000 -87.1333 302° West 257 296 6,400 -1,020 Descending Chicago TRACON
11:15AM 41.5167 -87.2167 285° West 258 297 6,000 -1,140 Descending Chicago TRACON
11:16AM 41.5333 -87.3167 283° West 270 311 4,200 -960 Descending Chicago TRACON
11:17AM 41.5333 -87.4167 270° West 265 305 4,100 -60 Descending Chicago TRACON
11:18AM 41.5500 -87.5167 283° West 264 304 4,100  Level Chicago TRACON
11:19AM 41.5667 -87.6000 285° West 266 306 4,100 -180 Level Chicago TRACON
11:19AM 41.5606 -87.6217 249° West 263 303 3,900 -180 Descending Chicago Center
11:20AM 41.5697 -87.7156 277° West 261 300 3,900 -420 Level Chicago Center
11:21AM 41.6017 -87.7808 303° West 236 272 3,100 -780 Descending Chicago Center
11:22AM 41.6333 -87.8167 320° Northwest 193 222 2,700 -360 Descending Chicago TRACON
11:23AM 41.6667 -87.8667 312° West 186 214 2,600 -60 Descending Chicago TRACON
11:24AM 41.7000 -87.8500 20° North 180 207 2,600 -60 Level Chicago TRACON
11:25AM 41.7500 -87.8500 360° North 182 209 2,500 -360 Descending Chicago TRACON
11:26AM 41.8000 -87.8333 14° North 168 193 1,900 -540 Descending Chicago TRACON
11:26AM 41.8167 -87.8000 56° Northeast 138 159 1,600 -420 Descending Chicago TRACON
11:28AM 41.7800 -87.7494 134° Southeast 150 173 900 -420 Descending Chicago Center